Time;durP1;ratioP1;P1;durP2;ratioP2;P2;SDS_P1;SDS_P2;PMS_P1;PMS_P2;Temp;Humidity;BMP_temperature;BMP_pressure;BME280_temperature;BME280_humidity;BME280_pressure;Samples;Min_cycle;Max_cycle;Signal;HPM_P1;HPM_P2
2021/01/18 00:00:16;;;;;;;12.33;6.83;;;1.90;90.30;;;2.15;75.26;98265.88;5064741;28;20052;-46
2021/01/18 00:02:44;;;;;;;11.13;7.30;;;2.00;89.80;;;2.22;74.89;98261.13;5064764;28;20179;-47
2021/01/18 00:05:11;;;;;;;13.60;7.30;;;2.10;89.60;;;2.18;75.38;98265.72;5064311;28;20051;-47
2021/01/18 00:07:50;;;;;;;12.67;6.67;;;2.10;89.50;;;2.23;74.68;98263.66;5064158;28;20049;-51
2021/01/18 00:10:22;;;;;;;11.93;7.13;;;2.10;89.60;;;2.27;74.59;98259.03;5064775;28;20049;-48
2021/01/18 00:12:53;;;;;;;12.80;6.20;;;2.10;89.50;;;2.29;74.77;98259.81;5064752;28;20044;-49
2021/01/18 00:15:23;;;;;;;11.57;6.43;;;2.00;89.20;;;2.29;74.67;98254.56;5062427;28;20063;-46
2021/01/18 00:17:52;;;;;;;10.20;6.20;;;2.10;89.50;;;2.30;74.63;98249.19;5064269;28;20063;-50
2021/01/18 00:20:21;;;;;;;11.10;6.93;;;2.10;89.20;;;2.27;74.50;98244.13;5063400;28;20063;-49
2021/01/18 00:22:49;;;;;;;14.53;6.70;;;2.00;89.20;;;2.22;74.96;98251.44;5064110;28;20052;-48
2021/01/18 00:25:21;;;;;;;14.30;7.30;;;1.90;89.50;;;2.27;74.31;98249.41;5063675;28;20053;-48
2021/01/18 00:27:49;;;;;;;12.73;7.40;;;2.00;89.60;;;2.29;74.77;98254.56;5063974;28;20053;-49
2021/01/18 00:30:21;;;;;;;11.77;7.13;;;2.00;90.20;;;2.29;74.65;98252.78;5064517;28;20111;-47
2021/01/18 00:32:50;;;;;;;12.50;7.07;;;2.00;89.40;;;2.33;74.33;98245.56;5064740;28;20252;-46
2021/01/18 00:35:19;;;;;;;11.93;7.17;;;2.00;89.30;;;2.36;74.40;98250.59;5063794;28;20080;-46
2021/01/18 00:37:52;;;;;;;12.20;6.70;;;2.10;89.40;;;2.39;74.39;98260.09;5064058;28;20256;-46
2021/01/18 00:40:24;;;;;;;13.13;7.20;;;2.10;89.30;;;2.39;74.49;98250.41;5064113;28;20053;-47
2021/01/18 00:42:52;;;;;;;10.30;7.13;;;2.20;89.00;;;2.40;74.10;98243.38;5062937;28;20049;-48
2021/01/18 00:45:21;;;;;;;17.50;7.37;;;2.20;88.90;;;2.38;74.32;98246.09;5063515;28;20341;-48
2021/01/18 00:47:51;;;;;;;14.73;7.60;;;2.20;88.80;;;2.24;74.30;98241.69;5063609;28;20063;-47
2021/01/18 00:50:25;;;;;;;14.17;7.87;;;2.10;88.90;;;2.39;74.40;98254.84;5063969;28;20041;-48
2021/01/18 00:52:54;;;;;;;;;;;2.10;89.10;;;2.27;73.97;98251.16;5062737;28;20053;-49
2021/01/18 00:55:24;;;;;;;14.93;7.60;;;2.00;89.40;;;2.34;74.45;98248.06;5062316;28;19916;-47
2021/01/18 00:58:12;;;;;;;13.87;6.67;;;2.00;89.30;;;2.32;74.12;98244.69;5063911;28;20051;-47
2021/01/18 01:00:45;;;;;;;13.13;7.40;;;2.00;89.20;;;2.38;74.27;98240.84;5059543;28;20044;-51
2021/01/18 01:03:15;;;;;;;11.90;7.47;;;2.10;89.30;;;2.38;74.09;98243.47;5042071;28;20256;-49
2021/01/18 01:05:43;;;;;;;13.37;7.47;;;2.10;88.90;;;2.44;74.24;98242.25;5043213;28;20448;-47
2021/01/18 01:08:10;;;;;;;13.80;7.80;;;2.20;88.90;;;2.29;74.44;98246.69;5043547;28;20067;-47
2021/01/18 01:10:38;;;;;;;17.13;7.50;;;2.10;88.80;;;2.37;74.57;98252.31;5043440;28;20038;-46
2021/01/18 01:13:10;;;;;;;10.87;6.80;;;2.10;89.10;;;2.43;74.15;98251.06;5043506;28;20057;-49
2021/01/18 01:15:37;;;;;;;12.00;7.27;;;2.20;89.10;;;2.45;74.25;98251.81;5042010;28;20061;-47
2021/01/18 01:18:04;;;;;;;14.70;7.47;;;2.20;88.80;;;2.50;74.56;98258.50;5042948;28;20087;-48
2021/01/18 01:20:32;;;;;;;13.13;7.40;;;2.30;88.60;;;2.43;74.10;98251.91;5043290;28;20128;-45
2021/01/18 01:23:00;;;;;;;16.33;6.87;;;2.20;88.30;;;2.42;73.82;98257.25;5043267;28;20041;-48
2021/01/18 01:25:27;;;;;;;11.67;6.27;;;2.20;88.30;;;2.41;74.37;98255.59;5042355;28;20057;-49
2021/01/18 01:27:56;;;;;;;12.63;6.83;;;2.20;88.50;;;2.48;73.96;98251.63;5042903;28;20044;-49
2021/01/18 01:30:25;;;;;;;12.87;6.83;;;2.20;88.70;;;2.51;74.18;98257.53;5042329;28;20056;-49
2021/01/18 01:32:54;;;;;;;10.20;6.37;;;2.30;88.70;;;2.55;73.84;98259.03;5043246;28;20049;-50
2021/01/18 01:35:27;;;;;;;12.60;6.80;;;2.30;88.20;;;2.56;73.83;98252.84;5042586;28;20053;-47
2021/01/18 01:37:56;;;;;;;14.13;6.60;;;2.30;88.20;;;2.50;74.06;98269.00;5042986;28;20053;-46
2021/01/18 01:40:24;;;;;;;14.60;7.20;;;2.20;87.90;;;2.45;74.23;98254.44;5043047;28;20057;-47
2021/01/18 01:42:51;;;;;;;10.17;6.47;;;2.20;88.40;;;2.46;74.27;98257.00;5041811;28;20241;-51
2021/01/18 01:45:20;;;;;;;14.57;7.10;;;2.20;88.20;;;2.45;74.52;98257.09;5042344;28;20052;-50
2021/01/18 01:47:52;;;;;;;11.20;6.90;;;2.20;88.50;;;2.46;74.33;98251.75;5040827;28;20049;-48
2021/01/18 01:50:27;;;;;;;11.37;6.97;;;2.30;88.40;;;2.47;74.04;98261.28;5041696;28;20053;-46
2021/01/18 01:52:56;;;;;;;11.93;6.77;;;2.30;88.00;;;2.34;74.03;98255.94;5043197;28;20053;-48
2021/01/18 01:55:32;;;;;;;15.00;7.00;;;2.20;87.90;;;2.29;74.45;98249.31;5042486;28;20053;-46
2021/01/18 01:58:01;;;;;;;14.00;8.03;;;2.10;88.40;;;2.36;74.17;98255.84;5042707;28;20345;-48
2021/01/18 02:00:37;;;;;;;12.50;8.23;;;2.10;88.60;;;2.25;74.15;98255.66;5042399;28;20050;-47
2021/01/18 02:03:11;;;;;;;14.90;7.63;;;2.10;88.80;;;2.28;74.26;98256.31;5042671;28;20209;-47
2021/01/18 02:05:40;;;;;;;12.57;6.85;;;2.00;88.90;;;2.26;73.98;98262.63;5042016;28;20244;-48
2021/01/18 02:08:09;;;;;;;11.00;7.13;;;2.10;88.60;;;2.27;74.32;98262.53;5043022;28;20042;-49
2021/01/18 02:10:38;;;;;;;14.93;7.77;;;2.10;88.70;;;2.33;74.21;98253.44;5042496;28;20245;-47
2021/01/18 02:13:45;;;;;;;12.57;6.67;;;2.10;88.50;;;2.31;74.24;98258.78;5041980;28;20060;-47
2021/01/18 02:16:41;;;;;;;14.67;7.57;;;2.20;88.10;;;2.38;73.87;98268.91;5041488;28;20083;-48
2021/01/18 02:20:07;;;;;;;13.83;7.07;;;2.20;88.20;;;2.33;73.90;98271.81;5042794;28;20309;-48
2021/01/18 02:23:18;;;;;;;;;;;2.10;88.30;;;2.36;73.96;98275.13;5020178;28;20069;-46
2021/01/18 02:25:56;;;;;;;15.50;8.13;;;2.10;88.40;;;2.41;73.92;98273.97;5052474;28;19925;-47
2021/01/18 02:28:46;;;;;;;17.03;8.40;;;2.10;88.70;;;2.34;74.00;98282.22;5040948;28;20045;-46
2021/01/18 02:31:47;;;;;;;13.40;7.60;;;2.10;88.50;;;2.32;74.18;98278.00;5042050;28;20049;-49
2021/01/18 02:34:39;;;;;;;14.80;8.10;;;2.00;88.50;;;2.29;74.06;98281.69;5041123;28;20048;-46
2021/01/18 02:37:44;;;;;;;18.27;8.93;;;2.00;88.30;;;2.38;73.87;98275.00;5041920;28;20226;-46
2021/01/18 02:40:46;;;;;;;18.55;8.55;;;2.10;88.50;;;2.32;73.63;98283.25;5041760;28;20244;-48
2021/01/18 02:43:18;;;;;;;18.73;8.37;;;2.10;88.30;;;2.34;74.10;98284.84;5041347;28;20049;-46
2021/01/18 02:45:47;;;;;;;14.17;8.47;;;2.10;88.30;;;2.26;73.65;98283.66;5024312;28;20055;-50
2021/01/18 02:48:16;;;;;;;19.43;9.83;;;2.00;88.20;;;2.18;74.24;98278.84;5040872;28;20045;-47
2021/01/18 02:50:43;;;;;;;13.13;7.93;;;2.00;88.30;;;2.22;73.82;98284.78;5041568;28;20062;-47
2021/01/18 02:53:12;;;;;;;16.93;8.63;;;2.00;88.20;;;2.28;73.66;98287.84;5040831;28;20045;-49
2021/01/18 02:55:39;;;;;;;12.17;8.00;;;2.10;88.30;;;2.30;74.12;98282.50;5040284;28;20049;-46
2021/01/18 02:58:13;;;;;;;11.60;7.37;;;2.10;87.80;;;2.29;73.81;98289.56;5042135;28;20050;-49
2021/01/18 03:00:49;;;;;;;13.82;8.25;;;2.10;87.80;;;2.33;73.89;98295.47;5040658;28;20050;-45
2021/01/18 03:03:54;;;;;;;12.00;7.77;;;2.20;87.90;;;2.38;73.50;98301.28;5056503;28;20211;-47
2021/01/18 03:06:29;;;;;;;;;;;2.20;87.70;;;2.28;73.65;98303.63;5029107;28;20132;-46
2021/01/18 03:09:07;;;;;;;13.98;6.57;;;2.10;87.30;;;2.33;73.47;98303.38;5056645;28;19918;-48
2021/01/18 03:11:42;;;;;;;14.53;7.23;;;2.00;88.00;;;2.32;73.83;98291.97;5041348;28;20061;-46
2021/01/18 03:14:28;;;;;;;16.23;7.47;;;2.00;87.70;;;2.32;73.45;98294.59;5056003;28;20226;-48
2021/01/18 03:16:57;;;;;;;10.27;6.90;;;2.00;87.80;;;2.32;73.64;98297.25;5056255;28;20037;-49
2021/01/18 03:19:56;;;;;;;14.07;7.60;;;2.10;87.80;;;2.33;73.78;98296.31;5056921;28;20052;-46
2021/01/18 03:22:27;;;;;;;19.77;7.40;;;2.10;87.90;;;2.29;73.59;98296.59;5026175;28;20057;-47
2021/01/18 03:25:08;;;;;;;15.50;7.27;;;2.10;87.80;;;2.20;73.78;98284.03;5041154;28;20047;-46
2021/01/18 03:27:53;;;;;;;13.00;6.90;;;2.00;87.90;;;2.12;73.52;98295.00;5040965;28;20064;-47
2021/01/18 03:30:23;;;;;;;11.80;7.03;;;1.90;88.60;;;2.17;74.25;98290.28;5041598;28;20045;-50
2021/01/18 03:32:53;;;;;;;14.63;7.20;;;1.90;88.30;;;2.23;73.68;98294.31;5041694;28;20318;-49
2021/01/18 03:35:23;;;;;;;10.13;6.57;;;2.00;88.10;;;2.09;73.92;98295.16;5041115;28;20052;-48
2021/01/18 03:37:56;;;;;;;16.23;6.70;;;1.90;88.00;;;2.15;73.82;98293.03;5041321;28;20049;-46
2021/01/18 03:40:26;;;;;;;11.63;6.97;;;2.00;88.10;;;2.10;73.53;98287.19;5041495;28;20050;-47
2021/01/18 03:43:08;;;;;;;13.77;6.97;;;1.90;88.30;;;2.18;73.73;98284.09;5040678;28;20055;-46
2021/01/18 03:45:41;;;;;;;14.30;7.33;;;2.00;88.00;;;2.24;74.03;98294.25;5041076;28;20045;-47
2021/01/18 03:48:11;;;;;;;10.83;6.50;;;2.00;87.80;;;2.14;73.29;98287.84;5041436;28;20049;-46
2021/01/18 03:50:40;;;;;;;14.83;6.43;;;2.00;87.20;;;2.20;73.92;98290.09;5041387;28;20052;-47
2021/01/18 03:53:11;;;;;;;14.20;6.80;;;1.90;87.80;;;2.25;73.65;98281.94;5042627;28;20045;-46
2021/01/18 03:55:39;;;;;;;13.03;6.80;;;2.00;87.60;;;2.17;73.67;98287.66;5044585;28;20049;-47
2021/01/18 03:58:07;;;;;;;12.43;6.60;;;2.00;87.20;;;1.96;73.68;98293.28;5060492;28;20055;-48
2021/01/18 04:00:36;;;;;;;13.37;6.63;;;1.80;87.60;;;2.10;73.73;98291.63;5045011;28;20047;-48
2021/01/18 04:03:04;;;;;;;12.90;5.80;;;1.90;88.00;;;2.00;73.82;98293.94;5044801;28;20054;-47
2021/01/18 04:05:33;;;;;;;10.77;6.07;;;1.80;87.50;;;1.97;74.08;98302.00;5044439;28;20046;-48
2021/01/18 04:08:00;;;;;;;14.10;6.40;;;1.80;87.50;;;1.87;74.62;98299.06;5044796;28;20049;-47
2021/01/18 04:10:29;;;;;;;14.87;5.90;;;1.70;87.80;;;1.86;74.42;98307.91;5044963;28;20059;-48
2021/01/18 04:12:57;;;;;;;11.80;5.57;;;1.70;87.90;;;1.85;74.37;98294.84;5044852;28;20049;-49
2021/01/18 04:15:26;;;;;;;12.10;6.00;;;1.70;88.00;;;1.84;74.41;98312.41;5043739;28;20068;-47
2021/01/18 04:17:56;;;;;;;12.27;6.17;;;1.70;88.20;;;1.93;73.89;98306.59;5044575;28;20052;-47
2021/01/18 04:20:25;;;;;;;11.67;6.00;;;1.70;88.20;;;1.80;74.71;98305.59;5045026;28;20240;-49
2021/01/18 04:23:04;;;;;;;11.40;5.63;;;1.60;88.10;;;1.89;74.04;98314.75;5042709;28;20067;-46
2021/01/18 04:25:32;;;;;;;10.57;6.90;;;1.70;88.40;;;1.96;73.79;98309.03;5044155;28;20329;-47
2021/01/18 04:28:03;;;;;;;12.93;6.30;;;1.70;89.10;;;1.86;73.89;98321.03;5044500;28;20037;-50
2021/01/18 04:30:37;;;;;;;12.10;6.67;;;1.70;88.00;;;1.82;74.37;98319.50;5043236;28;20045;-46
2021/01/18 04:33:08;;;;;;;11.93;5.68;;;1.70;88.20;;;1.85;74.43;98331.63;5044552;28;20060;-46
2021/01/18 04:35:39;;;;;;;11.07;5.93;;;1.70;88.20;;;1.75;74.75;98324.28;5043200;28;20057;-46
2021/01/18 04:38:07;;;;;;;11.30;5.97;;;1.60;88.40;;;1.72;74.91;98328.84;5044290;28;20338;-49
2021/01/18 04:40:35;;;;;;;7.83;4.53;;;1.60;88.40;;;1.62;75.12;98330.31;5043816;28;20057;-48
2021/01/18 04:43:03;;;;;;;10.53;5.97;;;1.60;88.40;;;1.67;75.12;98328.28;5044082;28;20337;-46
2021/01/18 04:45:31;;;;;;;10.70;5.57;;;1.60;88.70;;;1.47;74.64;98329.41;5043512;28;20045;-50
2021/01/18 04:47:59;;;;;;;9.90;5.47;;;1.50;88.90;;;1.55;74.95;98333.31;5041728;28;20050;-46
2021/01/18 04:50:29;;;;;;;12.70;6.40;;;1.50;89.10;;;1.61;74.54;98320.75;5043937;28;20049;-46
2021/01/18 04:53:01;;;;;;;13.90;6.40;;;1.60;89.60;;;1.49;75.30;98322.28;5043943;28;20033;-45
2021/01/18 04:55:42;;;;;;;10.97;6.67;;;1.50;89.20;;;1.46;75.45;98327.75;5058815;28;20053;-45
2021/01/18 04:58:14;;;;;;;11.40;6.50;;;1.50;89.50;;;1.47;75.89;98318.91;5058276;28;20257;-46
2021/01/18 05:00:51;;;;;;;12.20;6.70;;;1.40;89.50;;;1.40;76.19;98317.56;5043985;28;20049;-46
2021/01/18 05:03:23;;;;;;;9.30;5.60;;;1.40;89.40;;;1.43;75.83;98317.41;5042869;28;20053;-50
2021/01/18 05:06:03;;;;;;;15.70;6.77;;;1.40;89.50;;;1.55;75.11;98321.94;5041568;28;20054;-48
2021/01/18 05:09:01;;;;;;;11.70;6.53;;;1.50;89.40;;;1.48;75.84;98324.09;5043331;28;20055;-45
2021/01/18 05:11:28;;;;;;;12.53;7.03;;;1.50;90.00;;;1.46;75.39;98325.94;5043709;28;20055;-47
2021/01/18 05:14:03;;;;;;;12.17;7.30;;;1.40;89.40;;;1.47;75.49;98322.38;5043119;28;20245;-48
2021/01/18 05:16:35;;;;;;;12.17;6.33;;;1.40;89.30;;;1.41;75.46;98332.41;5043086;28;20050;-46
2021/01/18 05:19:09;;;;;;;9.00;6.17;;;1.40;89.30;;;1.33;76.07;98320.53;5043522;28;20049;-47
2021/01/18 05:21:48;;;;;;;11.50;6.75;;;1.40;89.60;;;1.39;75.91;98321.97;5043272;28;20057;-45
2021/01/18 05:24:18;;;;;;;11.80;7.17;;;1.40;89.30;;;1.43;75.26;98326.13;5043319;28;20046;-46
2021/01/18 05:27:05;;;;;;;8.73;4.77;;;1.40;89.30;;;1.32;75.62;98331.16;5042872;28;20045;-48
2021/01/18 05:29:36;;;;;;;15.43;7.20;;;1.40;89.40;;;1.30;75.54;98327.75;5058533;28;20049;-47
2021/01/18 05:32:23;;;;;;;12.50;5.80;;;1.40;89.60;;;1.28;75.86;98330.47;5128137;22;20348;-41
2021/01/18 05:35:10;;;;;;;12.80;7.10;;;1.40;90.20;;;1.31;76.09;98334.69;5036032;28;20049;-41
2021/01/18 05:38:12;;;;;;;19.77;7.47;;;1.40;89.20;;;1.25;76.92;98333.25;5042688;28;20057;-41
2021/01/18 05:40:50;;;;;;;12.20;6.43;;;1.40;89.30;;;1.24;76.21;98326.34;5042533;28;20049;-41
2021/01/18 05:43:18;;;;;;;11.40;5.63;;;1.30;89.70;;;1.33;76.32;98331.03;5043039;28;20052;-47
2021/01/18 05:45:47;;;;;;;20.80;6.90;;;1.40;89.50;;;1.30;76.08;98338.22;5042256;28;20250;-47
2021/01/18 05:48:27;;;;;;;14.47;6.00;;;1.30;89.40;;;1.23;75.89;98348.25;5042760;28;20344;-46
2021/01/18 05:51:01;;;;;;;10.23;6.13;;;1.30;89.70;;;1.28;76.50;98342.72;5041262;28;20056;-48
2021/01/18 05:53:31;;;;;;;10.98;6.03;;;1.40;89.50;;;1.28;76.75;98346.22;5041411;28;20256;-45
2021/01/18 05:56:20;;;;;;;11.27;7.27;;;1.40;89.20;;;1.25;76.48;98353.41;5042305;28;20071;-46
2021/01/18 05:58:48;;;;;;;19.40;6.77;;;1.40;89.50;;;1.38;75.46;98357.88;5042848;28;20053;-46
2021/01/18 06:01:38;;;;;;;15.23;6.47;;;1.40;89.30;;;1.42;76.02;98355.94;5038380;28;20059;-45
2021/01/18 06:04:17;;;;;;;13.23;6.60;;;1.50;89.00;;;1.45;75.37;98355.72;5041682;28;20137;-46
2021/01/18 06:06:57;;;;;;;10.20;5.57;;;1.50;88.30;;;1.43;75.66;98356.75;5042091;28;20048;-46
2021/01/18 06:09:44;;;;;;;17.67;6.73;;;1.50;88.10;;;1.55;75.27;98371.81;5042624;28;20049;-45
2021/01/18 06:12:25;;;;;;;10.57;5.93;;;1.60;88.10;;;1.58;74.93;98369.84;5042514;28;20238;-47
2021/01/18 06:15:12;;;;;;;10.87;5.97;;;1.60;87.30;;;1.70;75.03;98363.06;5041873;28;20353;-45
2021/01/18 06:17:51;;;;;;;12.87;5.73;;;1.70;87.20;;;1.67;74.95;98365.88;5042097;28;20336;-47
2021/01/18 06:20:29;;;;;;;10.37;5.40;;;1.70;87.00;;;1.69;74.68;98374.50;5041436;28;20049;-46
2021/01/18 06:22:58;;;;;;;12.07;6.57;;;1.70;86.90;;;1.70;74.92;98375.34;5041202;28;20071;-48
2021/01/18 06:25:33;;;;;;;8.93;5.57;;;1.70;87.30;;;1.76;74.85;98367.97;5041533;28;20042;-47
2021/01/18 06:28:01;;;;;;;13.10;5.93;;;1.70;87.30;;;1.74;74.28;98385.56;5041886;28;20053;-49
2021/01/18 06:30:31;;;;;;;13.13;5.77;;;1.70;87.00;;;1.76;74.68;98382.88;5041657;28;20048;-46
2021/01/18 06:33:10;;;;;;;13.30;5.80;;;1.70;87.00;;;1.88;74.54;98390.06;5040375;28;20349;-47
2021/01/18 06:35:38;;;;;;;13.17;5.00;;;1.80;87.10;;;1.83;73.72;98386.84;5041353;28;20051;-45
2021/01/18 06:38:07;;;;;;;8.77;5.50;;;1.80;86.60;;;1.92;74.44;98393.31;5041263;28;20064;-47
2021/01/18 06:40:40;;;;;;;14.30;7.13;;;1.80;87.00;;;1.89;73.88;98401.41;5041554;28;20045;-49
2021/01/18 06:43:10;;;;;;;9.80;6.17;;;1.80;87.00;;;1.94;74.16;98394.94;5041768;28;20321;-48
2021/01/18 06:45:41;;;;;;;10.37;5.43;;;1.90;87.30;;;1.92;73.60;98394.19;5040648;28;20049;-45
2021/01/18 06:48:10;;;;;;;14.60;6.50;;;1.90;86.40;;;1.96;73.79;98392.25;5041718;28;20052;-46
2021/01/18 06:50:40;;;;;;;6.87;4.77;;;1.90;87.00;;;1.89;74.03;98394.34;5039912;28;20230;-47
2021/01/18 06:53:22;;;;;;;12.60;5.00;;;1.80;86.60;;;1.83;73.78;98402.59;5041664;28;20245;-48
2021/01/18 06:56:23;;;;;;;12.00;5.60;;;1.80;86.50;;;1.73;74.56;98407.53;5041048;28;20060;-47
2021/01/18 06:59:26;;;;;;;10.03;5.60;;;1.80;87.00;;;1.67;73.83;98397.38;5041515;28;20341;-50
2021/01/18 07:02:21;;;;;;;16.00;5.50;;;1.70;87.00;;;1.75;73.98;98394.31;5039371;28;20049;-48
2021/01/18 07:04:50;;;;;;;10.23;5.07;;;1.70;86.90;;;1.73;74.40;98417.19;5040968;28;20053;-46
2021/01/18 07:07:30;;;;;;;12.47;5.77;;;1.70;87.00;;;1.75;74.18;98412.69;5040369;28;20070;-48
2021/01/18 07:10:21;;;;;;;10.20;5.53;;;1.70;87.30;;;1.79;74.00;98414.22;5041441;28;20045;-49
2021/01/18 07:12:48;;;;;;;10.17;6.23;;;1.70;87.20;;;1.79;73.88;98414.22;5028948;28;20052;-46
2021/01/18 07:15:16;;;;;;;10.77;5.83;;;1.80;87.30;;;1.91;74.15;98410.03;5021191;28;20049;-46
2021/01/18 07:17:51;;;;;;;11.50;6.23;;;1.90;87.30;;;1.88;74.53;98420.69;5021405;28;20069;-47
2021/01/18 07:20:27;;;;;;;12.73;6.03;;;1.80;87.30;;;1.64;74.67;98425.56;5021502;28;20113;-50
2021/01/18 07:23:14;;;;;;;11.27;5.87;;;1.60;88.20;;;1.73;74.85;98428.53;5021625;28;20210;-48
2021/01/18 07:25:46;;;;;;;13.57;7.30;;;1.70;88.20;;;1.76;74.47;98430.13;5021163;28;20042;-47
2021/01/18 07:28:18;;;;;;;15.87;7.13;;;1.70;88.30;;;1.74;74.27;98427.56;5022752;28;20053;-46
2021/01/18 07:30:49;;;;;;;12.47;6.43;;;1.70;88.20;;;1.71;75.30;98440.06;5025156;28;20054;-46
2021/01/18 07:33:18;;;;;;;12.77;6.40;;;1.60;88.40;;;1.76;74.87;98438.88;5024334;28;20056;-47
2021/01/18 07:35:47;;;;;;;16.03;7.70;;;1.70;88.40;;;1.72;74.43;98429.44;5024562;28;20060;-49
2021/01/18 07:38:21;;;;;;;18.07;7.50;;;1.70;88.20;;;1.73;75.02;98440.81;5025404;28;20064;-45
2021/01/18 07:41:06;;;;;;;11.80;6.67;;;1.70;88.40;;;1.63;75.18;98437.00;5025261;28;20062;-49
2021/01/18 07:43:36;;;;;;;13.60;6.47;;;1.60;88.60;;;1.61;75.51;98447.59;5025323;28;20050;-46
2021/01/18 07:46:28;;;;;;;17.93;7.27;;;1.60;88.60;;;1.61;75.46;98446.72;5024607;28;20048;-48
2021/01/18 07:49:08;;;;;;;12.83;6.17;;;1.60;88.30;;;1.68;74.83;98445.47;5022917;28;20046;-46
2021/01/18 07:51:35;;;;;;;12.03;6.13;;;1.70;88.10;;;1.61;74.68;98447.59;5023677;28;20065;-46
2021/01/18 07:54:03;;;;;;;14.33;6.43;;;1.60;88.40;;;1.66;74.83;98447.34;5025434;28;20054;-48
2021/01/18 07:56:33;;;;;;;10.90;6.20;;;1.60;88.30;;;1.71;74.77;98447.94;5024527;28;20064;-48
2021/01/18 07:59:07;;;;;;;10.40;6.40;;;1.70;88.40;;;1.75;74.65;98455.53;5024873;28;20244;-47
2021/01/18 08:01:37;;;;;;;12.00;6.90;;;1.80;87.90;;;1.78;74.49;98451.88;5023337;28;20057;-47
2021/01/18 08:04:23;;;;;;;17.53;7.07;;;1.80;88.20;;;1.63;74.73;98448.38;5023949;28;20049;-47
2021/01/18 08:07:06;;;;;;;15.87;7.07;;;1.60;88.90;;;1.58;75.52;98453.84;5039390;28;20046;-46
2021/01/18 08:09:36;;;;;;;11.75;5.70;;;1.60;89.30;;;1.56;75.97;98457.50;5024869;28;20045;-47
2021/01/18 08:12:33;;;;;;;15.97;6.90;;;1.60;89.80;;;1.50;76.42;98447.34;5025286;28;20045;-49
2021/01/18 08:15:09;;;;;;;20.03;7.33;;;1.50;90.30;;;1.56;76.13;98455.72;5023783;28;20250;-52
2021/01/18 08:17:38;;;;;;;11.33;5.87;;;1.60;90.20;;;1.50;76.13;98456.06;5039166;28;20054;-49
2021/01/18 08:20:21;;;;;;;12.80;6.53;;;1.60;90.20;;;1.42;77.25;98466.13;5024328;28;20051;-49
2021/01/18 08:22:50;;;;;;;11.43;5.47;;;1.50;90.30;;;1.46;76.78;98486.03;5024988;28;20353;-48
2021/01/18 08:25:30;;;;;;;13.17;6.10;;;1.60;89.80;;;1.45;76.51;98462.50;5055065;28;20057;-49
2021/01/18 08:28:46;;;;;;;10.97;5.60;;;1.60;89.80;;;1.44;76.92;98474.78;5040557;28;20045;-48
2021/01/18 08:31:14;;;;;;;13.33;5.97;;;1.70;90.10;;;1.49;76.43;98462.25;5036208;28;20053;-51
2021/01/18 08:33:42;;;;;;;11.37;6.30;;;1.60;89.80;;;1.50;76.37;98466.56;5023771;28;20049;-47
2021/01/18 08:36:09;;;;;;;15.43;6.70;;;1.60;89.70;;;1.52;76.51;98453.34;5023801;28;20041;-48
2021/01/18 08:38:37;;;;;;;13.27;6.20;;;1.70;89.90;;;1.66;76.45;98460.47;5024011;28;20219;-47
2021/01/18 08:41:08;;;;;;;12.03;5.87;;;1.80;89.70;;;1.62;76.69;98474.69;5024505;28;20206;-48
2021/01/18 08:43:47;;;;;;;12.80;5.97;;;1.70;89.70;;;1.66;76.72;98456.03;5038901;28;20053;-48
2021/01/18 08:46:35;;;;;;;11.97;6.13;;;1.80;89.80;;;1.63;76.19;98458.88;5023688;28;20046;-48
2021/01/18 08:49:31;;;;;;;11.23;6.93;;;1.70;89.90;;;1.69;76.47;98447.19;5022478;28;20060;-47
2021/01/18 08:52:00;;;;;;;13.60;7.17;;;1.70;90.10;;;1.73;75.74;98459.19;5024048;28;20052;-47
2021/01/18 08:54:36;;;;;;;11.90;7.00;;;1.80;89.70;;;1.77;76.29;98468.59;5023854;28;20057;-49
2021/01/18 08:57:25;;;;;;;12.37;6.13;;;1.90;89.30;;;1.84;75.99;98469.94;5023610;28;20049;-48
2021/01/18 09:00:10;;;;;;;12.60;6.87;;;2.00;88.80;;;1.85;75.52;98466.38;5024085;28;20060;-48
2021/01/18 09:02:40;;;;;;;9.93;5.27;;;1.90;89.20;;;1.82;76.04;98468.31;5038993;28;20067;-48
2021/01/18 09:05:20;;;;;;;8.23;5.03;;;1.90;89.20;;;1.92;75.79;98464.22;5042753;28;20045;-48
2021/01/18 09:07:49;;;;;;;9.60;6.07;;;2.00;88.60;;;2.05;75.57;98465.22;5043062;28;20056;-48
2021/01/18 09:10:19;;;;;;;10.63;5.00;;;2.10;88.70;;;2.14;74.79;98466.50;5043341;28;20059;-50
2021/01/18 09:12:49;;;;;;;9.33;4.77;;;2.20;87.60;;;2.17;75.16;98466.31;5043051;28;20057;-48
2021/01/18 09:15:19;;;;;;;11.13;5.40;;;2.20;87.60;;;2.29;74.95;98472.66;5042782;28;20049;-49
2021/01/18 09:17:48;;;;;;;9.50;6.30;;;2.30;87.60;;;2.21;75.25;98475.72;5042294;28;20265;-49
2021/01/18 09:20:16;;;;;;;11.33;5.27;;;2.20;87.40;;;2.27;74.75;98479.75;5043147;28;20049;-48
2021/01/18 09:22:45;;;;;;;9.40;6.27;;;2.30;87.40;;;2.17;74.44;98480.31;5043297;28;20041;-48
2021/01/18 09:25:15;;;;;;;12.90;5.43;;;2.20;87.00;;;2.19;74.87;98474.97;5042695;28;20048;-50
2021/01/18 09:27:43;;;;;;;9.00;4.97;;;2.20;87.50;;;2.26;74.73;98481.53;5043067;28;20048;-49
2021/01/18 09:30:17;;;;;;;12.37;5.40;;;2.20;87.50;;;2.28;74.85;98481.47;5043081;28;20053;-48
2021/01/18 09:33:06;;;;;;;8.23;4.27;;;2.30;87.30;;;2.36;74.03;98493.25;5032750;28;20057;-48
2021/01/18 09:35:43;;;;;;;8.67;5.10;;;2.40;86.50;;;2.32;73.98;98490.84;5041045;28;20045;-48
2021/01/18 09:38:13;;;;;;;9.90;4.60;;;2.30;86.10;;;2.46;74.29;98490.06;5039956;28;20053;-49
2021/01/18 09:40:43;;;;;;;10.90;4.93;;;2.40;86.40;;;2.55;74.05;98498.25;5040895;28;20053;-51
2021/01/18 09:43:18;;;;;;;8.67;4.83;;;2.50;86.40;;;2.53;74.09;98483.50;5036397;28;20045;-47
2021/01/18 09:45:52;;;;;;;9.57;4.03;;;2.50;86.40;;;2.62;73.99;98496.13;5019489;28;20046;-51
2021/01/18 09:48:25;;;;;;;10.67;5.23;;;2.60;85.90;;;2.65;73.91;98485.41;5035275;28;20041;-51
2021/01/18 09:51:05;;;;;;;6.40;3.83;;;2.60;85.70;;;2.75;73.61;98494.47;5021094;28;20104;-49
2021/01/18 09:53:34;;;;;;;7.37;4.33;;;2.70;85.60;;;2.81;74.12;98487.13;5032435;28;20280;-51
2021/01/18 09:56:08;;;;;;;10.10;4.37;;;2.80;86.10;;;2.70;72.55;98490.41;5055068;28;20349;-47
2021/01/18 09:58:38;;;;;;;;;;;2.70;84.00;;;2.81;73.26;98480.09;5042019;28;20053;-47
2021/01/18 10:01:16;;;;;;;8.47;3.83;;;2.70;85.10;;;2.83;73.67;98479.97;5039913;28;20108;-46
2021/01/18 10:03:53;;;;;;;11.30;4.63;;;2.70;85.70;;;2.90;73.39;98483.94;5040209;28;20055;-47
2021/01/18 10:06:28;;;;;;;8.30;4.77;;;2.80;85.20;;;2.90;72.34;98484.78;5040817;28;20216;-46
2021/01/18 10:09:12;;;;;;;10.07;4.57;;;2.90;84.30;;;2.95;72.97;98484.53;5040483;28;20056;-47
2021/01/18 10:11:45;;;;;;;13.23;4.20;;;2.90;84.60;;;3.01;73.18;98470.16;5040365;28;20051;-47
2021/01/18 10:14:27;;;;;;;7.87;4.37;;;3.00;84.90;;;3.09;73.14;98457.38;5041298;28;20256;-46
2021/01/18 10:17:09;;;;;;;5.30;3.33;;;3.10;84.60;;;3.04;71.79;98467.31;5040538;28;20068;-46
2021/01/18 10:19:39;;;;;;;7.23;4.10;;;3.10;83.10;;;3.14;73.02;98471.06;5040745;28;20345;-48
2021/01/18 10:22:36;;;;;;;5.73;3.47;;;3.10;84.70;;;2.92;71.49;98466.28;5041158;28;20051;-50
2021/01/18 10:25:11;;;;;;;8.87;4.70;;;3.00;82.30;;;3.09;72.56;98465.25;5039873;28;20071;-47
2021/01/18 10:27:53;;;;;;;9.47;4.00;;;3.00;84.40;;;3.17;72.53;98457.72;5056584;28;20248;-47
2021/01/18 10:32:58;;;;;;;7.37;4.40;;;3.10;83.70;;;3.30;72.72;98457.81;5141863;27;20322;-48
2021/01/18 10:35:35;;;;;;;5.67;3.77;;;3.20;84.00;;;3.24;71.87;98458.19;5120983;28;20481;-48
2021/01/18 10:38:21;;;;;;;8.57;4.03;;;3.20;82.10;;;3.30;72.06;98440.25;5119584;28;20039;-52
2021/01/18 10:41:08;;;;;;;4.60;3.53;;;3.20;82.00;;;3.27;71.19;98442.22;5119279;28;20061;-50
2021/01/18 10:43:46;;;;;;;5.87;3.10;;;3.30;81.60;;;3.36;72.21;98449.53;5119125;28;20050;-49
2021/01/18 10:46:16;;;;;;;8.53;3.20;;;3.20;83.10;;;3.42;72.26;98445.69;5118698;28;20043;-50
2021/01/18 10:48:55;;;;;;;3.83;2.83;;;3.30;82.50;;;3.46;71.96;98436.63;5117931;28;20510;-50
2021/01/18 10:51:29;;;;;;;6.27;2.93;;;3.40;81.50;;;3.46;70.06;98436.63;5118147;28;20042;-52
2021/01/18 10:54:01;;;;;;;4.70;3.07;;;3.40;81.30;;;3.49;70.60;98450.47;5101167;28;20244;-49
2021/01/18 10:56:47;;;;;;;7.43;2.90;;;3.50;81.20;;;3.50;71.00;98452.13;5118182;28;20056;-51
2021/01/18 10:59:15;;;;;;;5.80;2.57;;;3.40;80.20;;;3.53;71.01;98453.75;5100667;28;20048;-47
2021/01/18 11:02:04;;;;;;;8.00;3.07;;;3.50;80.90;;;3.53;71.29;98462.50;5122756;28;20065;-47
2021/01/18 11:04:43;;;;;;;7.20;3.03;;;3.50;80.40;;;3.51;70.96;98460.91;5139079;28;20051;-48